createdAt,value
2022-11-13T00:01:17.787Z,75.68
2022-11-13T00:03:44.876Z,76.53
2022-11-13T00:06:13.260Z,84.25
2022-11-13T00:08:40.783Z,83.63
2022-11-13T00:11:10.219Z,84.15
2022-11-13T00:13:37.156Z,84.80
2022-11-13T00:16:07.005Z,80.18
2022-11-13T00:18:37.292Z,83.45
2022-11-13T00:21:24.491Z,81.97
2022-11-13T00:23:51.875Z,76.65
2022-11-13T00:26:27.388Z,84.53
2022-11-13T00:28:56.596Z,80.63
2022-11-13T00:31:24.123Z,66.35
2022-11-13T00:34:26.045Z,71.13
2022-11-13T00:36:38.128Z,74.32
2022-11-13T00:39:05.173Z,76.68
2022-11-13T00:41:32.128Z,73.28
2022-11-13T00:43:59.057Z,79.15
2022-11-13T00:46:25.993Z,77.25
2022-11-13T00:48:52.941Z,70.82
2022-11-13T00:51:20.012Z,75.85
2022-11-13T00:53:47.223Z,73.40
2022-11-13T00:56:14.400Z,72.18
2022-11-13T00:58:41.426Z,77.68
2022-11-13T01:01:12.020Z,75.65
2022-11-13T01:03:39.037Z,70.55
2022-11-13T01:06:18.198Z,74.30
2022-11-13T01:08:45.672Z,72.72
2022-11-13T01:11:18.404Z,82.32
2022-11-13T01:13:48.468Z,67.63
2022-11-13T01:16:17.921Z,75.30
2022-11-13T01:18:45.321Z,76.82
2022-11-13T01:21:13.815Z,77.47
2022-11-13T01:23:41.243Z,79.78
2022-11-13T01:26:21.493Z,73.47
2022-11-13T01:28:48.801Z,78.95
2022-11-13T01:31:18.319Z,84.63
2022-11-13T01:33:46.538Z,74.53
2022-11-13T01:36:19.531Z,73.75
2022-11-13T01:41:23.401Z,74.97
2022-11-13T01:43:51.944Z,76.38
2022-11-13T01:46:27.605Z,82.35
2022-11-13T01:49:12.897Z,82.85
2022-11-13T01:51:47.747Z,86.03
2022-11-13T01:54:20.761Z,75.10
2022-11-13T01:59:21.764Z,69.00
2022-11-13T02:01:49.097Z,71.75
2022-11-13T02:04:16.109Z,69.53
2022-11-13T02:06:44.996Z,77.43
2022-11-13T02:09:13.877Z,75.80
2022-11-13T02:11:41.401Z,82.53
2022-11-13T02:14:09.861Z,77.82
2022-11-13T02:16:38.013Z,78.25
2022-11-13T02:19:10.672Z,76.80
2022-11-13T02:22:18.633Z,76.35
2022-11-13T02:24:50.931Z,75.10
2022-11-13T02:27:29.392Z,76.78
2022-11-13T02:29:56.464Z,69.72
2022-11-13T02:32:23.366Z,72.60
2022-11-13T02:34:50.302Z,66.57
2022-11-13T02:37:17.288Z,70.25
2022-11-13T02:39:44.202Z,68.07
2022-11-13T02:42:11.097Z,71.05
2022-11-13T02:44:38.050Z,69.32
2022-11-13T02:47:05.013Z,67.97
2022-11-13T02:49:31.898Z,72.97
2022-11-13T02:51:58.841Z,66.97
2022-11-13T02:54:25.776Z,71.70
2022-11-13T02:56:52.689Z,68.68
2022-11-13T02:59:19.640Z,68.90
2022-11-13T03:01:47.567Z,68.85
2022-11-13T03:04:14.494Z,74.93
2022-11-13T03:06:41.531Z,64.78
2022-11-13T03:09:08.626Z,62.72
2022-11-13T03:11:35.568Z,60.83
2022-11-13T03:14:02.588Z,65.82
2022-11-13T03:16:29.557Z,68.45
2022-11-13T03:18:57.253Z,63.95
2022-11-13T03:21:24.407Z,66.97
2022-11-13T03:23:51.320Z,56.53
2022-11-13T03:26:18.397Z,63.13
2022-11-13T03:28:45.407Z,64.75
2022-11-13T03:31:13.085Z,68.25
2022-11-13T03:33:40.079Z,70.00
2022-11-13T03:36:07.383Z,71.35
2022-11-13T03:38:34.923Z,67.43
2022-11-13T03:41:01.876Z,73.20
2022-11-13T03:43:28.895Z,76.50
2022-11-13T03:45:55.838Z,74.93
2022-11-13T03:48:22.786Z,73.30
2022-11-13T03:50:53.210Z,76.68
2022-11-13T03:53:20.561Z,69.57
2022-11-13T03:55:47.986Z,79.20
2022-11-13T03:58:15.573Z,70.45
2022-11-13T04:00:43.820Z,71.53
2022-11-13T04:03:11.317Z,73.53
2022-11-13T04:05:38.942Z,69.50
2022-11-13T04:08:06.362Z,66.18
2022-11-13T04:10:33.333Z,71.55
2022-11-13T04:13:00.280Z,73.45
2022-11-13T04:15:27.264Z,68.22
2022-11-13T04:17:54.162Z,73.93
2022-11-13T04:20:21.191Z,76.45
2022-11-13T04:22:48.226Z,73.95
2022-11-13T04:25:15.267Z,72.60
2022-11-13T04:27:42.209Z,76.05
2022-11-13T04:30:10.318Z,80.13
2022-11-13T04:32:37.382Z,78.78
2022-11-13T04:35:04.549Z,73.05
2022-11-13T04:37:31.466Z,78.35
2022-11-13T04:39:58.354Z,75.22
2022-11-13T04:42:44.035Z,72.60
2022-11-13T04:45:11.013Z,75.45
2022-11-13T04:47:37.953Z,80.05
2022-11-13T04:50:05.408Z,72.53
2022-11-13T04:52:32.307Z,70.05
2022-11-13T04:54:59.261Z,71.32
2022-11-13T04:57:26.229Z,74.18
2022-11-13T04:59:53.144Z,78.18
2022-11-13T05:02:20.241Z,69.88
2022-11-13T05:04:47.365Z,73.30
2022-11-13T05:07:14.374Z,75.88
2022-11-13T05:09:41.331Z,74.68
2022-11-13T05:12:08.902Z,78.63
2022-11-13T05:14:40.024Z,76.85
2022-11-13T05:17:09.255Z,77.38
2022-11-13T05:19:39.173Z,79.07
2022-11-13T05:22:06.756Z,74.40
2022-11-13T05:24:33.712Z,76.45
2022-11-13T05:27:00.610Z,83.40
2022-11-13T05:29:27.527Z,82.43
2022-11-13T05:31:54.494Z,81.15
2022-11-13T05:34:21.519Z,84.97
2022-11-13T05:36:48.425Z,79.38
2022-11-13T05:39:15.526Z,81.88
2022-11-13T05:41:42.543Z,88.10
2022-11-13T05:44:09.548Z,94.05
2022-11-13T05:46:36.567Z,91.90
2022-11-13T05:49:11.579Z,87.10
2022-11-13T05:51:41.700Z,85.82
2022-11-13T05:54:08.992Z,92.47
2022-11-13T05:56:37.078Z,88.07
2022-11-13T05:59:05.142Z,91.28
2022-11-13T06:01:38.141Z,86.95
2022-11-13T06:06:33.940Z,86.72
2022-11-13T06:09:03.506Z,85.55
2022-11-13T06:11:31.609Z,84.70
2022-11-13T06:13:59.971Z,102.38
2022-11-13T06:16:29.888Z,91.22
2022-11-13T06:19:01.474Z,87.38
2022-11-13T06:21:31.611Z,85.70
2022-11-13T06:23:59.617Z,82.43
2022-11-13T06:26:32.832Z,81.40
2022-11-13T06:29:02.416Z,83.90
2022-11-13T06:31:32.006Z,75.93
2022-11-13T06:33:59.986Z,81.93
2022-11-13T06:36:29.662Z,89.65
2022-11-13T06:38:57.088Z,94.88
2022-11-13T06:41:26.863Z,81.97
2022-11-13T06:43:55.644Z,83.00
2022-11-13T06:46:26.583Z,78.93
2022-11-13T06:48:53.769Z,80.00
2022-11-13T06:51:23.220Z,88.57
2022-11-13T06:53:50.635Z,83.22
2022-11-13T06:56:21.458Z,100.95
2022-11-13T06:58:48.574Z,81.15
2022-11-13T07:01:22.039Z,87.30
2022-11-13T07:03:49.359Z,86.40
2022-11-13T07:06:22.142Z,81.10
2022-11-13T07:08:50.340Z,87.78
2022-11-13T07:11:20.581Z,81.05
2022-11-13T07:13:47.829Z,83.93
2022-11-13T07:16:17.702Z,86.70
2022-11-13T07:18:50.263Z,84.25
2022-11-13T07:21:17.301Z,89.30
2022-11-13T07:23:44.628Z,89.57
2022-11-13T07:26:12.090Z,95.00
2022-11-13T07:28:39.955Z,88.50
2022-11-13T07:31:08.044Z,94.15
2022-11-13T07:33:35.455Z,91.22
2022-11-13T07:36:02.465Z,91.38
2022-11-13T07:38:29.737Z,97.80
2022-11-13T07:40:59.109Z,91.82
2022-11-13T07:43:26.567Z,91.78
2022-11-13T07:45:56.598Z,88.05
2022-11-13T07:48:23.882Z,96.68
2022-11-13T07:50:51.490Z,96.65
2022-11-13T07:53:20.224Z,90.63
2022-11-13T07:55:47.794Z,94.13
2022-11-13T07:58:15.045Z,92.78
2022-11-13T08:00:42.597Z,91.63
2022-11-13T08:03:14.594Z,96.63
2022-11-13T08:05:42.789Z,85.00
2022-11-13T08:08:13.108Z,93.00
2022-11-13T08:10:40.205Z,102.18
2022-11-13T08:13:10.196Z,95.07
2022-11-13T08:15:37.552Z,92.55
2022-11-13T08:18:05.249Z,91.70
2022-11-13T08:20:33.217Z,95.20
2022-11-13T08:23:01.999Z,94.13
2022-11-13T08:25:30.802Z,93.97
2022-11-13T08:27:58.217Z,86.60
2022-11-13T08:30:27.140Z,87.07
2022-11-13T08:32:54.566Z,89.80
2022-11-13T08:35:26.614Z,85.70
2022-11-13T08:38:03.332Z,92.35
2022-11-13T08:40:30.570Z,88.68
2022-11-13T08:43:01.869Z,87.68
2022-11-13T08:45:30.810Z,88.50
2022-11-13T08:48:04.943Z,78.93
2022-11-13T08:50:35.679Z,86.47
2022-11-13T08:53:03.675Z,82.03
2022-11-13T08:55:30.711Z,79.13
2022-11-13T08:58:02.227Z,87.60
2022-11-13T09:00:30.619Z,91.30
2022-11-13T09:02:58.977Z,89.82
2022-11-13T09:05:26.490Z,82.65
2022-11-13T09:07:57.661Z,83.90
2022-11-13T09:10:25.320Z,94.30
2022-11-13T09:13:03.775Z,90.57
2022-11-13T09:15:32.820Z,96.45
2022-11-13T09:18:01.607Z,92.35
2022-11-13T09:20:30.305Z,92.28
2022-11-13T09:23:02.032Z,92.13
2022-11-13T09:25:36.852Z,91.20
2022-11-13T09:28:05.255Z,91.53
2022-11-13T09:30:32.284Z,91.63
2022-11-13T09:33:00.797Z,94.18
2022-11-13T09:35:34.820Z,99.95
2022-11-13T09:38:10.498Z,86.47
2022-11-13T09:40:53.749Z,95.55
2022-11-13T09:43:45.432Z,87.82
2022-11-13T09:46:12.421Z,86.15
2022-11-13T09:48:42.998Z,91.28
2022-11-13T09:51:28.116Z,90.75
2022-11-13T09:53:55.632Z,90.68
2022-11-13T09:56:47.159Z,102.15
2022-11-13T09:59:34.726Z,95.57
2022-11-13T10:02:30.759Z,93.10
2022-11-13T10:05:28.978Z,107.22
2022-11-13T10:08:13.724Z,101.57
2022-11-13T10:10:55.975Z,96.60
2022-11-13T10:13:41.616Z,83.53
2022-11-13T10:16:35.647Z,94.88
2022-11-13T10:19:34.668Z,95.95
2022-11-13T10:22:36.569Z,98.50
2022-11-13T10:25:26.106Z,94.63
2022-11-13T10:28:15.975Z,95.57
2022-11-13T10:30:49.443Z,99.53
2022-11-13T10:33:21.669Z,91.00
2022-11-13T10:36:08.064Z,86.32
2022-11-13T10:38:48.077Z,83.05
2022-11-13T10:41:20.544Z,83.25
2022-11-13T10:43:52.415Z,86.47
2022-11-13T10:46:29.826Z,92.10
2022-11-13T10:48:58.199Z,81.55
2022-11-13T10:51:30.476Z,84.95
2022-11-13T10:53:59.897Z,83.50
2022-11-13T10:56:34.846Z,80.80
2022-11-13T10:59:04.461Z,83.97
2022-11-13T11:01:31.585Z,88.78
2022-11-13T11:03:58.867Z,79.95
2022-11-13T11:07:05.000Z,80.55
2022-11-13T11:09:31.106Z,84.90
2022-11-13T11:12:27.240Z,97.93
2022-11-13T11:14:57.448Z,83.97
2022-11-13T11:17:54.971Z,86.32
2022-11-13T11:20:22.160Z,78.70
2022-11-13T11:23:29.520Z,75.45
2022-11-13T11:26:00.291Z,84.60
2022-11-13T11:28:36.240Z,73.53
2022-11-13T11:31:11.525Z,81.03
2022-11-13T11:34:31.759Z,84.38
2022-11-13T11:37:07.730Z,82.75
2022-11-13T11:39:55.728Z,82.20
2022-11-13T11:42:41.735Z,78.68
2022-11-13T11:45:23.769Z,81.78
2022-11-13T11:47:51.257Z,80.88
2022-11-13T11:50:30.520Z,88.55
2022-11-13T11:53:14.029Z,79.38
2022-11-13T11:55:55.165Z,89.03
2022-11-13T11:58:49.628Z,91.30
2022-11-13T12:01:52.389Z,87.18
2022-11-13T12:04:40.584Z,85.05
2022-11-13T12:07:16.844Z,81.82
2022-11-13T12:10:04.022Z,89.22
2022-11-13T12:12:33.933Z,91.53
2022-11-13T12:15:09.166Z,90.10
2022-11-13T12:18:07.794Z,83.35
2022-11-13T12:21:09.591Z,89.78
2022-11-13T12:24:09.629Z,89.32
2022-11-13T12:26:49.767Z,83.30
2022-11-13T12:29:28.719Z,85.43
2022-11-13T12:32:20.333Z,84.57
2022-11-13T12:34:55.573Z,83.95
2022-11-13T12:37:28.869Z,88.07
2022-11-13T12:40:07.040Z,81.25
2022-11-13T12:42:36.116Z,72.40
2022-11-13T12:45:09.126Z,87.22
2022-11-13T12:47:37.198Z,93.07
2022-11-13T12:50:25.128Z,103.53
2022-11-13T12:53:07.034Z,94.88
2022-11-13T12:55:36.220Z,89.20
2022-11-13T12:58:22.062Z,87.70
2022-11-13T13:01:07.669Z,87.25
2022-11-13T13:04:02.361Z,84.97
2022-11-13T13:06:56.468Z,83.93
2022-11-13T13:09:36.834Z,87.40
2022-11-13T13:12:17.936Z,79.32
2022-11-13T13:15:03.563Z,81.90
2022-11-13T13:17:31.067Z,71.80
2022-11-13T13:20:02.722Z,79.28
2022-11-13T13:22:35.654Z,77.75
2022-11-13T13:25:04.656Z,71.82
2022-11-13T13:27:39.615Z,85.18
2022-11-13T13:30:21.149Z,74.55
2022-11-13T13:33:07.739Z,75.75
2022-11-13T13:36:02.562Z,70.22
2022-11-13T13:38:41.629Z,77.50
2022-11-13T13:41:28.491Z,77.32
2022-11-13T13:44:26.481Z,78.40
2022-11-13T13:46:56.801Z,75.13
2022-11-13T13:49:27.488Z,72.07
2022-11-13T13:51:56.419Z,79.53
2022-11-13T13:54:27.579Z,84.22
2022-11-13T13:56:57.208Z,79.38
2022-11-13T13:59:36.382Z,73.95
2022-11-13T14:02:13.551Z,77.88
2022-11-13T14:04:46.699Z,84.70
2022-11-13T14:07:22.680Z,85.32
2022-11-13T14:09:50.139Z,80.38
2022-11-13T14:12:22.167Z,74.05
2022-11-13T14:14:49.389Z,81.68
2022-11-13T14:17:25.162Z,77.72
2022-11-13T14:19:53.989Z,69.55
2022-11-13T14:22:22.200Z,79.85
2022-11-13T14:24:56.454Z,86.43
2022-11-13T14:27:28.443Z,77.05
2022-11-13T14:30:04.846Z,80.97
2022-11-13T14:32:45.763Z,74.63
2022-11-13T14:35:23.465Z,80.72
2022-11-13T14:37:53.080Z,73.03
2022-11-13T14:40:24.933Z,87.40
2022-11-13T14:43:01.114Z,87.00
2022-11-13T14:45:31.031Z,93.03
2022-11-13T14:47:59.177Z,104.50
2022-11-13T14:50:35.171Z,100.25
2022-11-13T14:53:05.908Z,118.78
2022-11-13T14:55:38.183Z,105.72
2022-11-13T14:58:06.461Z,103.28
2022-11-13T15:00:38.635Z,101.90
2022-11-13T15:03:07.420Z,93.15
2022-11-13T15:05:34.424Z,94.40
2022-11-13T15:08:01.572Z,90.15
2022-11-13T15:10:29.947Z,90.03
2022-11-13T15:12:56.965Z,83.97
2022-11-13T15:15:31.230Z,94.75
2022-11-13T15:17:58.318Z,92.10
2022-11-13T15:20:28.706Z,92.97
2022-11-13T15:22:57.794Z,89.93
2022-11-13T15:25:27.145Z,91.30
2022-11-13T15:27:54.276Z,94.65
2022-11-13T15:30:21.306Z,103.38
2022-11-13T15:32:53.301Z,96.30
2022-11-13T15:35:21.240Z,104.40
2022-11-13T15:37:48.549Z,100.68
2022-11-13T15:40:15.962Z,100.65
2022-11-13T15:42:43.868Z,91.43
2022-11-13T15:45:15.909Z,88.18
2022-11-13T15:47:43.156Z,99.80
2022-11-13T15:50:13.771Z,89.80
2022-11-13T15:52:44.879Z,97.45
2022-11-13T15:55:26.438Z,92.50
2022-11-13T15:57:54.415Z,99.80
2022-11-13T16:00:27.004Z,92.15
2022-11-13T16:02:56.295Z,99.70
2022-11-13T16:05:29.455Z,95.38
2022-11-13T16:07:57.108Z,93.05
2022-11-13T16:10:25.368Z,97.72
2022-11-13T16:12:52.789Z,97.07
2022-11-13T16:15:20.022Z,98.82
2022-11-13T16:17:50.326Z,103.65
2022-11-13T16:20:18.381Z,114.75
2022-11-13T16:22:45.453Z,108.70
2022-11-13T16:25:18.556Z,116.18
2022-11-13T16:30:21.546Z,109.93
2022-11-13T16:32:49.003Z,107.97
2022-11-13T16:35:18.005Z,114.10
2022-11-13T16:37:45.338Z,112.55
2022-11-13T16:40:31.156Z,108.88
2022-11-13T16:42:58.416Z,110.72
2022-11-13T16:45:25.377Z,113.70
2022-11-13T16:47:52.325Z,120.22
2022-11-13T16:50:24.078Z,112.38
2022-11-13T16:52:51.398Z,116.60
2022-11-13T16:55:18.370Z,117.57
2022-11-13T16:57:45.515Z,122.00
2022-11-13T17:00:17.285Z,128.88
2022-11-13T17:02:44.522Z,138.77
2022-11-13T17:05:18.592Z,131.57
2022-11-13T17:07:46.149Z,128.65
2022-11-13T17:10:32.864Z,149.95
2022-11-13T17:13:01.006Z,158.10
2022-11-13T17:15:28.111Z,153.15
2022-11-13T17:17:58.388Z,154.10
2022-11-13T17:20:25.665Z,158.75
2022-11-13T17:22:52.645Z,153.68
2022-11-13T17:25:20.803Z,158.68
2022-11-13T17:27:47.896Z,157.55
2022-11-13T17:30:15.090Z,154.35
2022-11-13T17:32:42.189Z,152.68
2022-11-13T17:35:11.790Z,142.85
2022-11-13T17:37:39.556Z,128.90
2022-11-13T17:40:07.303Z,119.82
2022-11-13T17:42:34.281Z,118.03
2022-11-13T17:45:01.337Z,124.68
2022-11-13T17:47:28.262Z,135.02
2022-11-13T17:50:45.067Z,135.65
2022-11-13T17:53:36.372Z,124.45
2022-11-13T17:56:08.188Z,177.57
2022-11-13T17:58:45.626Z,137.65
2022-11-13T18:01:15.368Z,120.18
2022-11-13T18:03:42.842Z,112.97
2022-11-13T18:06:18.617Z,124.20
2022-11-13T18:08:47.382Z,129.82
2022-11-13T18:11:17.611Z,124.72
2022-11-13T18:13:45.608Z,129.23
2022-11-13T18:16:37.484Z,127.63
2022-11-13T18:19:07.066Z,122.30
2022-11-13T18:21:35.635Z,119.70
2022-11-13T18:24:06.205Z,127.97
2022-11-13T18:26:34.226Z,125.05
2022-11-13T18:29:01.937Z,124.32
2022-11-13T18:31:29.802Z,126.95
2022-11-13T18:33:59.861Z,130.80
2022-11-13T18:36:26.957Z,123.30
2022-11-13T18:38:54.990Z,122.78
2022-11-13T18:41:23.495Z,132.23
2022-11-13T18:43:51.663Z,137.38
2022-11-13T18:46:20.562Z,120.32
2022-11-13T18:48:49.107Z,131.07
2022-11-13T18:51:21.980Z,120.45
2022-11-13T18:53:50.364Z,134.02
2022-11-13T18:56:23.691Z,126.05
2022-11-13T18:58:52.353Z,114.53
2022-11-13T19:01:22.587Z,115.40
2022-11-13T19:04:16.057Z,112.68
2022-11-13T19:06:39.135Z,109.25
2022-11-13T19:09:10.923Z,107.10
2022-11-13T19:11:38.040Z,149.73
2022-11-13T19:14:05.154Z,106.00
2022-11-13T19:16:34.831Z,104.45
2022-11-13T19:19:08.086Z,100.30
2022-11-13T19:21:36.743Z,96.10
2022-11-13T19:24:04.264Z,103.78
2022-11-13T19:26:31.181Z,120.75
2022-11-13T19:28:58.367Z,131.90
2022-11-13T19:31:27.155Z,170.43
2022-11-13T19:33:59.105Z,167.75
2022-11-13T19:36:28.404Z,164.27
2022-11-13T19:38:56.258Z,144.43
2022-11-13T19:41:25.497Z,133.50
2022-11-13T19:43:52.697Z,124.95
2022-11-13T19:46:20.644Z,120.60
2022-11-13T19:48:49.453Z,118.00
2022-11-13T19:51:26.565Z,130.27
2022-11-13T19:53:58.609Z,137.80
2022-11-13T19:56:28.575Z,140.57
2022-11-13T19:58:56.125Z,139.38
2022-11-13T20:01:25.736Z,138.75
2022-11-13T20:04:01.523Z,124.82
2022-11-13T20:06:32.289Z,120.60
2022-11-13T20:09:03.199Z,116.72
2022-11-13T20:11:31.069Z,117.72
2022-11-13T20:13:58.487Z,109.35
2022-11-13T20:16:26.509Z,102.95
2022-11-13T20:18:58.650Z,100.25
2022-11-13T20:21:28.925Z,108.83
2022-11-13T20:23:58.265Z,106.35
2022-11-13T20:26:26.518Z,107.80
2022-11-13T20:28:54.614Z,91.50
2022-11-13T20:31:25.081Z,98.25
2022-11-13T20:33:55.277Z,96.88
2022-11-13T20:36:24.327Z,99.85
2022-11-13T20:38:55.922Z,108.32
2022-11-13T20:41:25.620Z,105.32
2022-11-13T20:43:56.942Z,108.40
2022-11-13T20:46:25.142Z,108.28
2022-11-13T20:48:53.034Z,94.45
2022-11-13T20:51:24.810Z,103.32
2022-11-13T20:53:59.902Z,100.65
2022-11-13T20:56:27.968Z,97.22
2022-11-13T20:58:56.363Z,98.05
2022-11-13T21:01:26.430Z,100.82
2022-11-13T21:03:54.184Z,97.88
2022-11-13T21:06:25.074Z,98.32
2022-11-13T21:08:56.729Z,100.70
2022-11-13T21:11:29.967Z,102.45
2022-11-13T21:13:58.565Z,110.65
2022-11-13T21:16:28.025Z,101.78
2022-11-13T21:18:57.196Z,109.45
2022-11-13T21:21:26.905Z,113.05
2022-11-13T21:23:56.504Z,104.93
2022-11-13T21:26:24.383Z,108.95
2022-11-13T21:28:57.383Z,112.13
2022-11-13T21:33:51.416Z,101.05
2022-11-13T21:36:23.725Z,110.43
2022-11-13T21:38:53.059Z,105.25
2022-11-13T21:41:21.505Z,117.03
2022-11-13T21:43:59.911Z,108.93
2022-11-13T21:46:29.987Z,105.35
2022-11-13T21:49:03.913Z,107.20
2022-11-13T21:51:32.005Z,103.57
2022-11-13T21:53:59.320Z,107.97
2022-11-13T21:56:27.944Z,100.03
2022-11-13T21:58:55.903Z,99.80
2022-11-13T22:01:24.330Z,92.50
2022-11-13T22:03:51.737Z,96.63
2022-11-13T22:06:30.603Z,96.95
2022-11-13T22:09:00.517Z,105.72
2022-11-13T22:11:31.867Z,100.78
2022-11-13T22:13:59.509Z,100.03
2022-11-13T22:16:28.367Z,93.72
2022-11-13T22:18:56.668Z,98.90
2022-11-13T22:21:25.220Z,94.63
2022-11-13T22:23:52.505Z,97.07
2022-11-13T22:26:20.327Z,97.70
2022-11-13T22:28:48.273Z,104.70
2022-11-13T22:31:20.481Z,102.82
2022-11-13T22:33:50.558Z,96.07
2022-11-13T22:36:35.213Z,99.03
2022-11-13T22:39:02.823Z,95.85
2022-11-13T22:41:32.325Z,91.05
2022-11-13T22:44:02.358Z,94.18
2022-11-13T22:46:31.457Z,97.72
2022-11-13T22:49:01.826Z,93.35
2022-11-13T22:51:32.041Z,92.18
2022-11-13T22:54:01.379Z,100.10
2022-11-13T22:56:30.964Z,97.85
2022-11-13T22:59:02.972Z,98.88
2022-11-13T23:01:32.641Z,95.95
2022-11-13T23:04:06.014Z,97.00
2022-11-13T23:06:34.769Z,93.30
2022-11-13T23:09:02.212Z,95.85
2022-11-13T23:11:40.544Z,100.03
2022-11-13T23:14:11.962Z,94.53
2022-11-13T23:16:39.664Z,100.07
2022-11-13T23:19:07.377Z,102.82
2022-11-13T23:21:34.509Z,94.75
2022-11-13T23:24:01.679Z,104.78
2022-11-13T23:26:29.283Z,117.35
2022-11-13T23:28:56.778Z,119.90
2022-11-13T23:31:24.343Z,117.15
2022-11-13T23:33:51.321Z,130.82
2022-11-13T23:36:18.660Z,122.95
2022-11-13T23:38:45.767Z,115.55
2022-11-13T23:41:13.241Z,132.02
2022-11-13T23:46:27.348Z,131.70
2022-11-13T23:48:54.271Z,131.48
2022-11-13T23:51:21.219Z,138.50
2022-11-13T23:53:48.160Z,135.82
2022-11-13T23:56:15.214Z,132.93
2022-11-13T23:58:42.395Z,138.15
